Time;durP1;ratioP1;P1;durP2;ratioP2;P2;SDS_P1;SDS_P2;PMS_P1;PMS_P2;Temp;Humidity;BMP_temperature;BMP_pressure;BME280_temperature;BME280_humidity;BME280_pressure;Samples;Min_cycle;Max_cycle;Signal;HPM_P1;HPM_P2
2022/10/27 00:00:56;;;;;;;7.60;5.32;;;;;;;15.04;100.00;101008.81;5028401;28;20030;-69
2022/10/27 00:03:21;;;;;;;7.88;5.60;;;;;;;14.96;100.00;101049.19;5029963;28;20040;-69
2022/10/27 00:05:47;;;;;;;7.28;5.28;;;;;;;14.85;100.00;101027.31;5028734;28;20033;-69
2022/10/27 00:08:18;;;;;;;6.85;4.43;;;;;;;15.11;100.00;101063.28;5028176;28;20084;-69
2022/10/27 00:10:44;;;;;;;9.85;5.20;;;;;;;14.56;100.00;101077.59;5028721;28;20033;-68
2022/10/27 00:13:11;;;;;;;7.85;5.18;;;;;;;14.51;100.00;101047.91;5028348;28;20084;-68
2022/10/27 00:15:36;;;;;;;9.85;5.55;;;;;;;14.78;100.00;101065.06;5029633;28;20030;-68
2022/10/27 00:18:10;;;;;;;7.88;5.30;;;;;;;14.42;100.00;100990.13;5028357;28;20036;-68
2022/10/27 00:20:36;;;;;;;7.25;5.15;;;;;;;14.58;100.00;101001.63;5029855;28;20025;-68
2022/10/27 00:23:01;;;;;;;6.93;4.82;;;;;;;14.21;100.00;100942.06;5029898;28;20033;-69
2022/10/27 00:25:27;;;;;;;10.45;5.10;;;;;;;14.97;100.00;101061.13;5028399;28;20030;-68
2022/10/27 00:27:52;;;;;;;5.53;4.32;;;;;;;15.08;100.00;101048.84;5029477;28;20045;-69
2022/10/27 00:30:17;;;;;;;7.25;4.75;;;;;;;15.02;100.00;101048.16;5031909;28;20134;-68
2022/10/27 00:32:43;;;;;;;7.97;4.80;;;;;;;15.40;100.00;101064.09;5033022;28;20087;-68
2022/10/27 00:35:08;;;;;;;7.68;4.45;;;;;;;15.20;100.00;101019.44;5028038;28;20030;-68
2022/10/27 00:37:34;;;;;;;8.55;4.63;;;;;;;14.92;100.00;101046.75;5027820;28;20484;-68
2022/10/27 00:39:59;;;;;;;10.15;4.95;;;;;;;14.71;100.00;101017.47;5033086;28;20033;-69
2022/10/27 00:42:25;;;;;;;7.70;4.80;;;;;;;14.52;100.00;100990.69;5032454;28;20033;-68
2022/10/27 00:44:50;;;;;;;9.25;5.05;;;;;;;14.52;100.00;101014.59;5032982;28;20029;-68
2022/10/27 00:47:31;;;;;;;8.25;5.53;;;;;;;14.89;100.00;101054.53;5033029;28;20034;-68
2022/10/27 00:50:19;;;;;;;6.57;4.45;;;;;;;14.24;100.00;100938.59;5032951;28;20061;-69
2022/10/27 00:52:51;;;;;;;7.40;5.15;;;;;;;14.62;100.00;101027.97;5031422;28;20033;-69
2022/10/27 00:55:32;;;;;;;6.68;5.25;;;;;;;14.45;100.00;101000.28;5031068;28;20037;-69
2022/10/27 00:58:02;;;;;;;6.73;4.63;;;;;;;14.68;100.00;101022.66;5033064;28;20022;-69
2022/10/27 01:00:28;;;;;;;7.75;5.25;;;;;;;14.80;100.00;101055.63;5031284;28;20404;-67
2022/10/27 01:02:54;;;;;;;7.57;4.70;;;;;;;14.54;100.00;101040.13;5032470;28;20048;-68
2022/10/27 01:05:27;;;;;;;8.13;5.32;;;;;;;14.69;100.00;101061.06;5032661;28;20030;-67
2022/10/27 01:07:59;;;;;;;7.78;5.15;;;;;;;14.01;100.00;100948.59;5032473;28;20030;-68
2022/10/27 01:10:25;;;;;;;;;;;;;;;14.86;100.00;101057.16;5031486;28;20511;-68
2022/10/27 01:12:51;;;;;;;7.22;5.05;;;;;;;14.58;100.00;101042.56;5032805;28;19913;-69
2022/10/27 01:15:16;;;;;;;9.80;5.15;;;;;;;14.55;100.00;101047.78;5032457;28;20036;-69
2022/10/27 01:17:42;;;;;;;9.93;5.55;;;;;;;14.77;100.00;101050.59;5032625;28;20030;-69
2022/10/27 01:20:28;;;;;;;10.65;5.55;;;;;;;14.40;100.00;101032.81;5032033;28;20033;-68
2022/10/27 01:23:15;;;;;;;8.32;5.30;;;;;;;14.62;100.00;101058.69;5031876;28;20033;-67
2022/10/27 01:26:05;;;;;;;9.57;5.63;;;;;;;14.56;100.00;101063.97;5031090;28;20030;-68
2022/10/27 01:29:08;;;;;;;8.73;5.32;;;;;;;14.80;100.00;101055.63;5030606;28;20033;-69
2022/10/27 01:31:53;;;;;;;8.10;5.13;;;;;;;14.23;100.00;101047.75;5032239;28;20063;-69
2022/10/27 01:34:27;;;;;;;10.43;6.20;;;;;;;14.11;100.00;101060.00;5032103;28;20036;-69
2022/10/27 01:37:11;;;;;;;9.02;5.80;;;;;;;13.85;100.00;100973.72;5030695;28;20040;-67
2022/10/27 01:39:46;;;;;;;8.57;5.90;;;;;;;14.42;100.00;101072.00;5030030;28;20460;-68
2022/10/27 01:42:42;;;;;;;8.43;5.82;;;;;;;14.35;100.00;101079.88;5030775;28;20033;-68
2022/10/27 01:45:13;;;;;;;7.90;5.85;;;;;;;13.97;100.00;101022.00;5031337;28;20053;-68
2022/10/27 01:47:39;;;;;;;8.45;5.95;;;;;;;13.92;100.00;100995.72;5030175;28;20072;-68
2022/10/27 01:50:06;;;;;;;8.77;6.10;;;;;;;13.79;100.00;101004.53;5031928;28;20095;-68
2022/10/27 01:52:48;;;;;;;8.45;6.03;;;;;;;14.34;100.00;101078.22;5031700;28;20087;-67
2022/10/27 01:55:19;;;;;;;11.85;5.97;;;;;;;13.80;100.00;101024.97;5031615;28;20044;-69
2022/10/27 01:58:19;;;;;;;8.35;6.32;;;;;;;14.01;100.00;101074.75;5031694;28;20483;-69
2022/10/27 02:01:18;;;;;;;10.23;6.35;;;;;;;14.06;100.00;101082.31;5030307;28;20068;-68
2022/10/27 02:03:57;;;;;;;9.77;5.55;;;;;;;14.02;100.00;101088.38;5030223;28;20475;-68
2022/10/27 02:06:56;;;;;;;9.77;6.05;;;;;;;14.19;100.00;101091.34;5031611;28;20045;-70
2022/10/27 02:09:38;;;;;;;9.65;5.53;;;;;;;14.00;100.00;101093.53;5031346;28;20176;-69
2022/10/27 02:12:14;;;;;;;7.28;5.00;;;;;;;14.00;100.00;101083.31;5029924;28;20484;-68
2022/10/27 02:14:42;;;;;;;10.65;5.38;;;;;;;13.69;100.00;101005.66;5010409;28;20042;-68
2022/10/27 02:17:11;;;;;;;8.48;4.57;;;;;;;13.62;100.00;101012.63;5011566;28;20057;-68
2022/10/27 02:19:40;;;;;;;8.05;5.38;;;;;;;13.93;100.00;101094.53;5010197;28;20022;-68
2022/10/27 02:22:06;;;;;;;6.15;4.70;;;;;;;13.54;100.00;101024.75;5024500;28;20025;-67
2022/10/27 02:24:32;;;;;;;6.72;5.18;;;;;;;13.66;100.00;101057.69;5031142;28;20036;-67
2022/10/27 02:27:04;;;;;;;6.10;4.63;;;;;;;13.68;100.00;101081.50;5029774;28;20038;-68
2022/10/27 02:29:43;;;;;;;7.47;4.25;;;;;;;14.12;100.00;101090.69;5030715;28;20504;-68
2022/10/27 02:32:13;;;;;;;6.78;4.20;;;;;;;13.56;100.00;101023.00;5013977;28;20029;-69
2022/10/27 02:34:40;;;;;;;6.88;4.25;;;;;;;13.67;100.00;100998.03;5016871;28;20085;-69
2022/10/27 02:37:08;;;;;;;5.88;4.22;;;;;;;13.69;100.00;101054.22;5018380;28;20108;-67
2022/10/27 02:39:33;;;;;;;6.57;4.10;;;;;;;13.38;100.00;100999.59;5030551;28;20042;-68
2022/10/27 02:42:00;;;;;;;6.10;4.55;;;;;;;13.68;100.00;101035.50;5010681;28;20037;-68
2022/10/27 02:44:25;;;;;;;4.82;4.10;;;;;;;13.91;100.00;101074.13;5010928;28;20041;-68
2022/10/27 02:46:51;;;;;;;8.75;4.50;;;;;;;14.19;100.00;101111.81;5009529;28;20030;-68
2022/10/27 02:49:16;;;;;;;6.35;4.80;;;;;;;14.04;100.00;101109.63;5011078;28;20033;-68
2022/10/27 02:51:42;;;;;;;7.95;4.78;;;;;;;14.01;100.00;101112.25;5009329;28;20504;-68
2022/10/27 02:54:07;;;;;;;9.25;5.15;;;;;;;13.68;100.00;101096.84;5010623;28;20114;-68
2022/10/27 02:56:32;;;;;;;8.30;5.22;;;;;;;14.24;100.00;101133.00;5010586;28;20405;-68
2022/10/27 02:58:58;;;;;;;9.25;5.40;;;;;;;14.32;100.00;101120.91;5010818;28;20041;-68
2022/10/27 03:01:23;;;;;;;6.60;5.05;;;;;;;14.00;100.00;101083.31;5009512;28;20065;-68
2022/10/27 03:03:49;;;;;;;7.80;5.63;;;;;;;13.87;100.00;101071.66;5010815;28;20084;-68
2022/10/27 03:06:14;;;;;;;8.38;5.65;;;;;;;13.82;100.00;101047.94;5009652;28;20034;-68
2022/10/27 03:08:39;;;;;;;9.20;6.10;;;;;;;13.81;100.00;101072.66;5010537;28;20033;-68
2022/10/27 03:11:05;;;;;;;11.05;6.13;;;;;;;13.62;100.00;101050.97;5010981;28;20064;-69
2022/10/27 03:13:30;;;;;;;10.65;6.63;;;;;;;13.59;100.00;101058.69;5030060;28;20064;-68
2022/10/27 03:15:56;;;;;;;9.13;6.30;;;;;;;13.68;100.00;101070.44;5021393;28;20026;-70
2022/10/27 03:18:22;;;;;;;10.65;6.78;;;;;;;13.93;100.00;101131.19;5010525;28;20058;-68
2022/10/27 03:20:47;;;;;;;11.55;7.20;;;;;;;14.10;100.00;101115.44;5009310;28;20376;-68
2022/10/27 03:23:13;;;;;;;13.60;7.20;;;;;;;13.98;100.00;101125.97;5008759;28;20510;-68
2022/10/27 03:25:42;;;;;;;11.65;7.10;;;;;;;13.64;100.00;101067.09;5026957;28;20034;-68
2022/10/27 03:28:09;;;;;;;11.88;6.47;;;;;;;13.88;100.00;101134.72;5028831;28;20041;-68
2022/10/27 03:30:34;;;;;;;7.50;5.88;;;;;;;13.50;100.00;101092.13;5026533;28;20057;-67
2022/10/27 03:33:00;;;;;;;8.45;5.97;;;;;;;13.81;100.00;101116.13;5030195;28;20076;-68
2022/10/27 03:35:26;;;;;;;11.55;6.18;;;;;;;13.81;100.00;101084.59;5030180;28;20034;-69
2022/10/27 03:37:56;;;;;;;8.57;5.50;;;;;;;13.66;100.00;101129.25;5020274;28;20037;-70
2022/10/27 03:40:22;;;;;;;10.63;5.60;;;;;;;13.64;100.00;101132.69;5027817;28;20491;-67
2022/10/27 03:42:47;;;;;;;7.97;5.70;;;;;;;13.56;100.00;101139.69;5029984;28;20053;-72
2022/10/27 03:45:13;;;;;;;8.20;5.55;;;;;;;13.61;100.00;101131.03;5027902;28;20415;-72
2022/10/27 03:48:08;;;;;;;9.38;5.90;;;;;;;13.67;100.00;101143.69;5026173;28;20030;-70
2022/10/27 03:50:34;;;;;;;12.18;5.30;;;;;;;13.85;100.00;101135.63;5046414;28;20021;-73
2022/10/27 03:52:59;;;;;;;11.95;7.25;;;;;;;13.74;100.00;101124.81;5050192;28;20029;-72
2022/10/27 03:55:25;;;;;;;10.80;7.28;;;;;;;13.65;100.00;101147.16;5050332;28;20633;-72
2022/10/27 03:57:52;;;;;;;12.48;7.32;;;;;;;13.50;100.00;101145.78;5049371;28;20029;-72
2022/10/27 04:00:18;;;;;;;14.43;8.77;;;;;;;13.32;100.00;101084.84;5050115;28;20036;-72
2022/10/27 04:02:43;;;;;;;17.00;8.88;;;;;;;13.19;100.00;101083.44;5048689;28;20029;-71
2022/10/27 04:05:08;;;;;;;18.70;10.70;;;;;;;13.09;100.00;101111.75;5054135;28;20087;-72
2022/10/27 04:07:34;;;;;;;25.20;12.65;;;;;;;13.31;100.00;101151.31;5053986;28;20033;-74
2022/10/27 04:10:00;;;;;;;19.38;10.82;;;;;;;13.03;100.00;101110.13;5052645;28;20032;-74
2022/10/27 04:12:26;;;;;;;14.90;9.32;;;;;;;13.23;100.00;101118.22;5036183;28;20030;-71
2022/10/27 04:14:51;;;;;;;18.50;10.50;;;;;;;12.91;100.00;101095.03;5034348;28;20036;-73
2022/10/27 04:17:17;;;;;;;15.45;9.95;;;;;;;13.13;100.00;101142.31;5023002;28;20072;-75
2022/10/27 04:19:43;;;;;;;23.45;10.90;;;;;;;13.24;100.00;101088.44;5022247;28;20093;-72
2022/10/27 04:22:08;;;;;;;19.25;10.25;;;;;;;13.28;100.00;101107.94;5021337;28;20125;-71
2022/10/27 04:24:34;;;;;;;17.65;10.07;;;;;;;13.16;100.00;101096.25;5012940;28;20427;-70
2022/10/27 04:26:59;;;;;;;13.45;7.60;;;;;;;13.24;100.00;101102.06;5012173;28;20034;-70
2022/10/27 04:29:25;;;;;;;11.70;7.72;;;;;;;13.08;100.00;101070.03;5014086;28;20091;-73
2022/10/27 04:31:50;;;;;;;13.27;7.07;;;;;;;13.56;100.00;101140.53;5014753;28;20030;-71
2022/10/27 04:34:15;;;;;;;9.93;6.93;;;;;;;13.28;100.00;101126.66;5014903;28;20029;-71
2022/10/27 04:36:41;;;;;;;8.30;5.82;;;;;;;12.62;100.00;101044.56;5013261;28;20716;-71
2022/10/27 04:39:06;;;;;;;9.23;6.70;;;;;;;13.37;100.00;101156.28;5012032;28;20465;-70
2022/10/27 04:41:32;;;;;;;14.30;7.18;;;;;;;13.24;100.00;101163.34;5012228;28;20038;-72
2022/10/27 04:43:57;;;;;;;14.02;7.53;;;;;;;13.23;100.00;101161.66;5012421;28;20493;-71
2022/10/27 04:46:23;;;;;;;12.13;8.05;;;;;;;13.46;100.00;101159.50;5027833;28;20102;-73
2022/10/27 04:48:48;;;;;;;12.15;7.93;;;;;;;13.63;100.00;101149.75;5032036;28;20038;-70
2022/10/27 04:51:14;;;;;;;12.02;7.32;;;;;;;13.29;100.00;101173.47;5031270;28;20404;-71
2022/10/27 04:53:39;;;;;;;14.50;8.65;;;;;;;12.68;100.00;101081.88;5030140;28;20021;-70
2022/10/27 04:56:05;;;;;;;15.95;8.95;;;;;;;13.49;100.00;101177.31;5032869;28;20116;-70
2022/10/27 04:58:30;;;;;;;20.98;9.30;;;;;;;13.14;100.00;101151.63;5032400;28;20038;-73
2022/10/27 05:00:56;;;;;;;14.63;9.55;;;;;;;12.99;100.00;101164.66;5031112;28;20091;-72
2022/10/27 05:03:21;;;;;;;16.02;10.13;;;;;;;13.06;100.00;101125.41;5031513;28;20597;-72
2022/10/27 05:05:47;;;;;;;21.95;9.90;;;;;;;13.24;100.00;101180.38;5032427;28;20026;-71
2022/10/27 05:08:12;;;;;;;18.95;10.40;;;;;;;13.29;100.00;101184.50;5032161;28;20029;-71
2022/10/27 05:10:38;;;;;;;18.85;9.68;;;;;;;13.05;100.00;101182.47;5032798;28;20029;-70
2022/10/27 05:13:03;;;;;;;21.60;10.48;;;;;;;13.05;100.00;101190.13;5032529;28;20034;-71
2022/10/27 05:15:29;;;;;;;27.90;10.35;;;;;;;12.96;100.00;101182.56;5031221;28;20450;-71
2022/10/27 05:17:55;;;;;;;23.95;10.57;;;;;;;13.03;100.00;101182.47;5030805;28;20033;-70
2022/10/27 05:20:21;;;;;;;30.30;11.02;;;;;;;13.03;100.00;101199.47;5032230;28;20472;-73
2022/10/27 05:22:47;;;;;;;31.20;11.20;;;;;;;13.98;100.00;101115.75;5031513;28;20029;-71
2022/10/27 05:25:13;;;;;;;25.88;10.18;;;;;;;14.26;100.00;101190.91;5032956;28;20454;-71
2022/10/27 05:27:38;;;;;;;29.48;10.63;;;;;;;13.90;100.00;101210.50;5032802;28;20025;-72
2022/10/27 05:30:05;;;;;;;24.33;8.63;;;;;;;15.59;100.00;101160.09;5031418;28;20120;-71
2022/10/27 05:32:30;;;;;;;19.98;8.13;;;;;;;15.15;100.00;101155.34;5032606;28;20037;-70
2022/10/27 05:34:56;;;;;;;25.67;10.27;;;;;;;15.08;100.00;101230.69;5032496;28;20045;-73
2022/10/27 05:37:23;;;;;;;22.92;11.02;;;;;;;14.78;100.00;101135.03;5032428;28;20114;-72
2022/10/27 05:39:48;;;;;;;25.17;13.65;;;;;;;15.20;100.00;101250.03;5032570;28;20045;-72
2022/10/27 05:42:13;;;;;;;26.98;13.82;;;;;;;14.91;100.00;101227.75;5032452;28;20484;-71
2022/10/27 05:44:39;;;;;;;28.65;13.00;;;;;;;14.82;100.00;101204.91;5030579;28;20049;-73
2022/10/27 05:47:04;;;;;;;22.77;10.82;;;;;;;14.35;100.00;101221.44;5030728;28;20037;-72
2022/10/27 05:49:29;;;;;;;31.17;12.35;;;;;;;14.92;100.00;101247.34;5032063;28;20021;-72
2022/10/27 05:51:55;;;;;;;25.27;10.73;;;;;;;16.45;100.00;101236.09;5031302;28;20043;-71
2022/10/27 05:54:20;;;;;;;24.40;10.20;;;;;;;15.08;100.00;101182.03;5032509;28;20033;-70
2022/10/27 05:56:48;;;;;;;23.63;10.95;;;;;;;15.11;100.00;101233.19;5031912;28;20030;-72
2022/10/27 05:59:14;;;;;;;37.38;12.00;;;;;;;19.04;100.00;101253.91;5031777;28;20072;-70
2022/10/27 06:01:39;;;;;;;40.38;14.40;;;;;;;18.99;100.00;101210.25;5031692;28;20116;-70
2022/10/27 06:04:04;;;;;;;35.17;12.10;;;;;;;19.22;100.00;101271.19;5031929;28;20029;-72
2022/10/27 06:06:30;;;;;;;29.55;12.07;;;;;;;18.75;100.00;101207.91;5032029;28;20033;-72
2022/10/27 06:08:55;;;;;;;41.72;11.07;;;;;;;19.65;100.00;101223.72;5031788;28;20029;-73
2022/10/27 06:11:21;;;;;;;48.15;12.88;;;;;;;19.65;100.00;101280.50;5032163;28;20057;-72
2022/10/27 06:13:50;;;;;;;45.75;11.35;;;;;;;19.68;100.00;101280.38;5032163;28;20025;-70
2022/10/27 06:16:18;;;;;;;33.15;9.75;;;;;;;19.16;100.00;101229.34;5029833;28;20068;-71
2022/10/27 06:18:43;;;;;;;29.95;9.40;;;;;;;18.12;100.00;101230.16;5029514;28;20053;-71
2022/10/27 06:21:08;;;;;;;25.92;10.00;;;;;;;17.76;100.00;101199.84;5031576;28;20484;-72
2022/10/27 06:23:36;;;;;;;36.25;10.55;;;;;;;16.92;100.00;101226.88;5031727;28;20470;-70
2022/10/27 06:26:02;;;;;;;25.23;9.80;;;;;;;16.55;100.00;101216.13;5031360;28;20068;-71
2022/10/27 06:28:27;;;;;;;23.40;8.88;;;;;;;16.55;100.00;101263.22;5031026;28;20037;-70
2022/10/27 06:30:53;;;;;;;16.38;7.80;;;;;;;16.60;100.00;101265.63;5031127;28;20104;-71
2022/10/27 06:33:19;;;;;;;27.58;8.43;;;;;;;16.06;100.00;101212.53;5031152;28;20029;-71
2022/10/27 06:35:45;;;;;;;21.67;9.27;;;;;;;16.65;100.00;101274.88;5031404;28;20044;-71
2022/10/27 06:38:15;;;;;;;23.77;11.35;;;;;;;16.47;100.00;101214.66;5031240;28;20054;-71
2022/10/27 06:40:41;;;;;;;20.20;10.05;;;;;;;17.00;100.00;101271.13;5031274;28;20026;-72
2022/10/27 06:43:07;;;;;;;21.23;10.55;;;;;;;15.96;100.00;101225.69;5030042;28;20056;-75
2022/10/27 06:45:32;;;;;;;54.00;23.17;;;;;;;16.85;100.00;101221.13;5031028;28;20365;-71
2022/10/27 06:48:00;;;;;;;96.18;49.60;;;;;;;17.16;100.00;101273.16;5030772;28;20091;-71
2022/10/27 06:50:26;;;;;;;55.53;30.63;;;;;;;16.76;100.00;101216.28;5031093;28;20025;-71
2022/10/27 06:52:52;;;;;;;56.47;29.85;;;;;;;17.11;100.00;101280.16;5031044;28;20107;-72
2022/10/27 06:55:18;;;;;;;54.17;30.95;;;;;;;17.34;100.00;101227.94;5031088;28;20029;-72
2022/10/27 06:57:43;;;;;;;46.03;26.95;;;;;;;17.04;100.00;101222.16;5030915;28;20030;-71
2022/10/27 07:00:09;;;;;;;48.75;26.10;;;;;;;17.88;100.00;101281.75;5031053;28;20028;-72
2022/10/27 07:02:35;;;;;;;46.13;24.77;;;;;;;17.89;100.00;101276.53;5030613;28;20539;-72
2022/10/27 07:05:01;;;;;;;28.55;13.40;;;;;;;17.78;100.00;101282.97;5031205;28;20033;-73
2022/10/27 07:07:26;;;;;;;19.35;11.77;;;;;;;17.35;100.00;101179.03;5029547;28;20029;-72
2022/10/27 07:09:56;;;;;;;15.63;8.98;;;;;;;18.02;100.00;101251.19;5029959;28;20029;-72
2022/10/27 07:12:21;;;;;;;17.33;9.70;;;;;;;17.68;100.00;101225.88;5030762;28;20407;-72
2022/10/27 07:14:46;;;;;;;17.42;8.23;;;;;;;18.10;100.00;101274.91;5030887;28;20026;-72
2022/10/27 07:17:12;;;;;;;19.30;8.80;;;;;;;17.75;100.00;101239.34;5030999;28;20026;-71
2022/10/27 07:19:37;;;;;;;13.82;6.75;;;;;;;17.85;100.00;101233.78;5030804;28;20415;-71
2022/10/27 07:22:03;;;;;;;20.85;7.47;;;;;;;17.86;100.00;101245.78;5030520;28;20041;-70
2022/10/27 07:24:28;;;;;;;14.25;5.45;;;;;;;17.85;100.00;101281.84;5029283;28;20543;-70
2022/10/27 07:26:53;;;;;;;16.30;6.03;;;;;;;17.75;100.00;101193.03;5030711;28;20037;-71
2022/10/27 07:29:19;;;;;;;17.60;6.82;;;;;;;18.40;100.00;101258.22;5030499;28;20026;-71
2022/10/27 07:31:46;;;;;;;11.93;7.22;;;;;;;18.42;100.00;101245.31;5028927;28;20750;-71
2022/10/27 07:34:11;;;;;;;16.75;9.00;;;;;;;18.59;100.00;101277.25;5029327;28;20411;-71
2022/10/27 07:36:37;;;;;;;19.00;8.93;;;;;;;18.14;100.00;101232.69;5029371;28;20022;-70
2022/10/27 07:39:03;;;;;;;12.65;8.30;;;;;;;18.20;100.00;101250.47;5031075;28;20381;-71
2022/10/27 07:41:28;;;;;;;9.07;6.18;;;;;;;18.85;100.00;101251.28;5034593;28;20408;-71
2022/10/27 07:43:54;;;;;;;8.48;5.32;;;;;;;18.45;100.00;101229.75;5034618;28;20056;-71
2022/10/27 07:46:19;;;;;;;12.20;6.40;;;;;;;19.04;100.00;101297.72;5034187;28;20061;-71
2022/10/27 07:48:44;;;;;;;10.95;5.00;;;;;;;18.70;100.00;101236.44;5033299;28;20476;-71
2022/10/27 07:51:10;;;;;;;9.05;4.55;;;;;;;19.48;100.00;101277.81;5033251;28;20120;-72
2022/10/27 07:53:35;;;;;;;9.32;3.90;;;;;;;19.38;100.00;101286.88;5034296;28;20056;-72
2022/10/27 07:56:02;;;;;;;11.70;4.15;;;;;;;19.19;100.00;101291.09;5032724;28;20497;-72
2022/10/27 07:58:27;;;;;;;6.70;3.65;;;;;;;19.24;100.00;101256.47;5032570;28;20344;-71
2022/10/27 08:00:53;;;;;;;11.02;3.95;;;;;;;18.97;100.00;101206.09;5034205;28;20033;-71
2022/10/27 08:03:21;;;;;;;10.98;4.28;;;;;;;19.31;100.00;101296.59;5033973;28;20037;-71
2022/10/27 08:05:47;;;;;;;7.10;4.05;;;;;;;19.22;100.00;101188.66;5033660;28;20114;-73
2022/10/27 08:08:14;;;;;;;8.65;3.22;;;;;;;19.59;100.00;101291.09;5034189;28;20067;-71
2022/10/27 08:10:41;;;;;;;9.57;3.50;;;;;;;19.28;100.00;101255.44;5033016;28;20492;-73
2022/10/27 08:13:07;;;;;;;8.45;3.30;;;;;;;19.98;100.00;101283.31;5032837;28;20033;-72
2022/10/27 08:15:33;;;;;;;6.65;3.90;;;;;;;19.89;100.00;101295.72;5034026;28;20072;-72
2022/10/27 08:18:01;;;;;;;6.10;3.35;;;;;;;19.60;100.00;101252.31;5032799;28;20068;-72
2022/10/27 08:20:30;;;;;;;7.18;3.58;;;;;;;19.83;100.00;101246.09;5033883;28;20025;-72
2022/10/27 08:23:00;;;;;;;9.45;3.85;;;;;;;20.36;100.00;101288.38;5033914;28;20090;-72
2022/10/27 08:25:27;;;;;;;9.23;3.90;;;;;;;20.37;100.00;101295.25;5032776;28;20116;-72
2022/10/27 08:27:52;;;;;;;13.65;4.18;;;;;;;20.68;100.00;101242.91;5032370;28;20299;-72
2022/10/27 08:30:19;;;;;;;10.55;4.72;;;;;;;20.42;100.00;101290.69;5033264;28;20038;-72
2022/10/27 08:32:44;;;;;;;9.45;3.60;;;;;;;20.28;100.00;101249.16;5033501;28;20408;-70
2022/10/27 08:35:10;;;;;;;5.88;3.22;;;;;;;19.95;100.00;101242.97;5033311;28;20033;-71
2022/10/27 08:37:35;;;;;;;6.00;2.78;;;;;;;20.30;100.00;101291.25;5033211;28;20033;-71
2022/10/27 08:40:00;;;;;;;8.38;3.20;;;;;;;20.42;100.00;101285.50;5033003;28;20036;-71
2022/10/27 08:42:41;;;;;;;4.18;2.80;;;;;;;20.24;100.00;101242.50;5032456;28;20612;-71
2022/10/27 08:45:19;;;;;;;5.75;3.03;;;;;;;20.60;99.53;101302.72;5032443;28;20507;-71
2022/10/27 08:47:46;;;;;;;5.85;3.42;;;;;;;20.30;100.00;101265.41;5034021;28;20029;-73
2022/10/27 08:50:16;;;;;;;7.00;3.55;;;;;;;20.31;99.32;101241.28;5031777;28;20123;-72
2022/10/27 08:52:48;;;;;;;7.25;3.90;;;;;;;21.40;99.45;101293.56;5032028;28;20496;-72
2022/10/27 08:55:13;;;;;;;9.82;3.97;;;;;;;21.82;90.53;101293.09;5033264;28;20047;-71
2022/10/27 08:57:44;;;;;;;5.80;3.28;;;;;;;20.85;88.10;101299.81;5033231;28;20029;-71
2022/10/27 09:00:14;;;;;;;5.97;2.72;;;;;;;21.82;84.47;101297.44;5033168;28;20084;-72
2022/10/27 09:03:01;;;;;;;7.03;2.90;;;;;;;21.37;91.32;101298.88;5033135;28;20466;-70
2022/10/27 09:05:50;;;;;;;7.32;3.30;;;;;;;22.18;89.02;101292.88;5031337;28;20017;-72
2022/10/27 09:08:30;;;;;;;25.45;4.10;;;;;;;21.53;86.19;101302.34;5033058;28;20148;-72
2022/10/27 09:11:15;;;;;;;5.78;2.53;;;;;;;21.54;83.47;101246.25;5030907;28;20034;-71
2022/10/27 09:14:26;;;;;;;7.55;2.47;;;;;;;21.72;81.66;101289.28;5031583;28;20120;-75
2022/10/27 09:16:58;;;;;;;6.85;2.63;;;;;;;21.93;78.09;101287.31;5031720;28;20203;-72
2022/10/27 09:19:43;;;;;;;9.27;2.55;;;;;;;21.96;78.40;101276.81;5031480;28;20427;-72
2022/10/27 09:22:15;;;;;;;8.38;2.90;;;;;;;21.99;75.65;101276.63;5032647;28;20036;-73
2022/10/27 09:24:41;;;;;;;6.20;2.90;;;;;;;22.22;72.80;101274.44;5031561;28;20033;-72
2022/10/27 09:27:10;;;;;;;7.45;3.00;;;;;;;22.27;71.04;101280.22;5031472;28;20446;-72
2022/10/27 09:29:37;;;;;;;7.88;2.65;;;;;;;22.21;71.09;101277.13;5032497;28;20026;-72
2022/10/27 09:32:28;;;;;;;7.57;2.40;;;;;;;21.91;68.61;101181.22;5032872;28;20120;-73
2022/10/27 09:35:02;;;;;;;7.85;2.70;;;;;;;22.32;68.66;101234.16;5033291;28;20025;-72
2022/10/27 09:37:30;;;;;;;9.65;2.88;;;;;;;22.09;70.70;101268.28;5031661;28;20041;-70
2022/10/27 09:39:57;;;;;;;4.32;2.53;;;;;;;22.34;66.92;101268.59;5032707;28;20021;-73
2022/10/27 09:42:23;;;;;;;7.32;2.60;;;;;;;22.41;63.96;101227.63;5032305;28;20179;-72
2022/10/27 09:44:53;;;;;;;5.70;2.45;;;;;;;22.84;62.21;101276.13;5030901;28;20036;-72
2022/10/27 09:47:25;;;;;;;17.85;3.05;;;;;;;23.13;62.22;101254.50;5030452;28;20029;-70
2022/10/27 09:49:52;;;;;;;4.85;2.40;;;;;;;23.08;61.92;101266.06;5030794;28;20026;-70
2022/10/27 09:52:41;;;;;;;4.47;2.50;;;;;;;22.88;61.15;101237.84;5030686;28;20381;-68
2022/10/27 09:55:07;;;;;;;6.60;2.13;;;;;;;22.49;60.54;101261.72;5030294;28;20029;-69
2022/10/27 09:57:35;;;;;;;4.15;2.20;;;;;;;23.27;58.46;101259.69;5030255;28;20567;-69
2022/10/27 10:00:07;;;;;;;4.20;2.30;;;;;;;22.77;60.17;101254.06;5030432;28;20040;-69
2022/10/27 10:02:36;;;;;;;3.35;2.08;;;;;;;23.10;57.78;101147.44;5031134;28;20033;-71
2022/10/27 10:05:16;;;;;;;6.90;2.65;;;;;;;24.14;56.08;101243.97;5032030;28;20051;-69
2022/10/27 10:07:43;;;;;;;6.05;2.30;;;;;;;23.66;55.56;101186.34;5032009;28;20168;-71
2022/10/27 10:10:25;;;;;;;6.50;2.50;;;;;;;23.40;54.75;101252.03;5030505;28;20040;-71
2022/10/27 10:13:03;;;;;;;4.55;2.50;;;;;;;23.84;55.78;101244.94;5030077;28;20030;-71
2022/10/27 10:15:31;;;;;;;5.65;2.30;;;;;;;24.10;53.07;101225.13;5030529;28;20033;-70
2022/10/27 10:18:01;;;;;;;5.70;2.40;;;;;;;24.11;52.59;101193.00;5031791;28;20427;-69
2022/10/27 10:20:35;;;;;;;6.45;2.60;;;;;;;24.40;52.38;101241.38;5030126;28;20128;-70
2022/10/27 10:23:19;;;;;;;3.78;2.40;;;;;;;24.07;52.63;101226.16;5030117;28;20045;-69
2022/10/27 10:25:48;;;;;;;7.20;2.40;;;;;;;23.65;51.92;101184.66;5030411;28;20056;-69
2022/10/27 10:28:36;;;;;;;7.60;2.50;;;;;;;23.51;52.84;101139.72;5030293;28;20107;-69
2022/10/27 10:31:07;;;;;;;5.10;2.40;;;;;;;24.08;52.25;101235.66;5029502;28;20504;-70
2022/10/27 10:33:35;;;;;;;;;;;;;;;24.51;51.33;101232.84;5031991;28;20037;-70
2022/10/27 10:36:32;;;;;;;3.83;2.00;;;;;;;24.41;51.02;101223.97;5031240;28;19985;-69
2022/10/27 10:38:59;;;;;;;5.32;2.70;;;;;;;23.99;51.27;101215.38;5029977;28;20087;-69
2022/10/27 10:41:26;;;;;;;3.90;2.20;;;;;;;23.64;52.71;101188.22;5030641;28;20071;-70
2022/10/27 10:44:10;;;;;;;3.83;2.40;;;;;;;24.52;51.01;101182.50;5031042;28;20050;-69
2022/10/27 10:46:59;;;;;;;7.68;2.50;;;;;;;23.83;50.86;101183.50;5029714;28;20504;-68
2022/10/27 10:49:30;;;;;;;6.65;2.70;;;;;;;24.70;50.37;101212.50;5029636;28;20049;-70
2022/10/27 10:51:59;;;;;;;5.05;2.35;;;;;;;23.64;51.09;101175.22;5029202;28;20083;-69
2022/10/27 10:54:33;;;;;;;7.38;2.30;;;;;;;24.05;50.72;101176.03;5030879;28;20116;-68
2022/10/27 10:56:58;;;;;;;5.97;2.30;;;;;;;24.32;50.08;101220.22;5031090;28;20033;-70
2022/10/27 10:59:28;;;;;;;4.53;2.30;;;;;;;24.28;50.87;101137.31;5030871;28;20165;-69
2022/10/27 11:02:15;;;;;;;5.90;2.40;;;;;;;24.71;49.45;101126.53;5030832;28;20041;-70
2022/10/27 11:04:43;;;;;;;7.28;2.30;;;;;;;25.30;48.93;101194.47;5030662;28;20061;-68
2022/10/27 11:07:31;;;;;;;4.47;2.25;;;;;;;25.30;48.43;101210.94;5029414;28;20040;-68
2022/10/27 11:10:20;;;;;;;7.00;2.30;;;;;;;25.60;47.52;101194.97;5030866;28;20083;-72
2022/10/27 11:12:45;;;;;;;4.85;2.38;;;;;;;25.15;46.65;101200.75;5028967;28;20064;-69
2022/10/27 11:15:28;;;;;;;3.55;2.15;;;;;;;25.05;47.03;101108.63;5029479;28;20515;-68
2022/10/27 11:18:16;;;;;;;4.40;2.30;;;;;;;25.91;45.91;101193.63;5030556;28;20029;-68
2022/10/27 11:20:46;;;;;;;3.38;2.20;;;;;;;24.98;47.43;101133.41;5018777;28;20110;-68
2022/10/27 11:23:42;;;;;;;4.13;2.13;;;;;;;24.87;49.10;101194.84;5030040;28;20025;-69
2022/10/27 11:26:09;;;;;;;3.15;2.10;;;;;;;24.27;48.90;101148.63;5030230;28;20037;-68